Time;durP1;ratioP1;P1;durP2;ratioP2;P2;SDS_P1;SDS_P2;PMS_P1;PMS_P2;Temp;Humidity;BMP_temperature;BMP_pressure;BME280_temperature;BME280_humidity;BME280_pressure;Samples;Min_cycle;Max_cycle;Signal;HPM_P1;HPM_P2
2022/07/31 00:00:18;;;;;;;4.60;3.33;;;;;;;26.98;57.11;97924.25;4993377;28;20768;-63
2022/07/31 00:02:45;;;;;;;3.90;3.60;;;;;;;26.96;57.46;97921.03;4993220;28;20569;-63
2022/07/31 00:05:11;;;;;;;3.80;3.38;;;;;;;26.92;57.77;97903.06;4993189;28;20175;-63
2022/07/31 00:07:36;;;;;;;4.22;3.05;;;;;;;26.51;59.91;97901.00;4993129;28;20210;-63
2022/07/31 00:10:03;;;;;;;5.55;3.40;;;;;;;26.43;60.73;97893.31;4993102;28;20648;-62
2022/07/31 00:12:28;;;;;;;4.22;3.33;;;;;;;26.37;61.80;97883.53;4993047;28;20179;-63
2022/07/31 00:14:54;;;;;;;4.65;3.67;;;;;;;26.27;62.46;97869.97;4993076;28;20234;-63
2022/07/31 00:17:20;;;;;;;3.85;3.50;;;;;;;26.08;65.28;97884.22;4993050;28;20630;-63
2022/07/31 00:19:45;;;;;;;3.70;3.40;;;;;;;25.56;68.08;97878.38;4992949;28;20175;-63
2022/07/31 00:22:12;;;;;;;3.50;3.20;;;;;;;25.35;69.17;97876.84;4992972;28;20178;-63
2022/07/31 00:24:38;;;;;;;3.05;2.85;;;;;;;25.57;66.74;97888.78;4992922;28;20193;-63
2022/07/31 00:27:03;;;;;;;2.60;2.40;;;;;;;25.72;65.59;97910.47;4992806;28;20635;-62
2022/07/31 00:29:29;;;;;;;2.78;2.35;;;;;;;25.84;64.66;97900.81;4992842;28;20229;-63
2022/07/31 00:31:55;;;;;;;2.90;2.70;;;;;;;25.78;65.76;97898.22;4992820;28;20203;-63
2022/07/31 00:34:21;;;;;;;2.80;2.60;;;;;;;25.34;70.11;97901.72;4992709;28;20198;-63
2022/07/31 00:36:46;;;;;;;3.58;2.35;;;;;;;25.41;67.62;97907.78;4991795;28;20532;-63
2022/07/31 00:39:12;;;;;;;2.85;2.65;;;;;;;25.50;65.92;97917.13;4992741;28;20628;-63
2022/07/31 00:41:43;;;;;;;2.55;2.33;;;;;;;25.51;65.56;97921.41;4992720;28;20182;-64
2022/07/31 00:44:10;;;;;;;2.17;2.08;;;;;;;25.49;67.30;97926.09;4992737;28;20554;-63
2022/07/31 00:46:36;;;;;;;2.65;2.30;;;;;;;25.54;66.17;97917.53;4992536;28;20198;-63
2022/07/31 00:49:02;;;;;;;3.55;2.50;;;;;;;25.65;63.27;97920.31;4992654;28;20171;-63
2022/07/31 00:51:27;;;;;;;2.20;2.10;;;;;;;25.66;64.12;97926.44;4992621;28;20181;-63
2022/07/31 00:53:53;;;;;;;2.60;2.40;;;;;;;25.62;65.30;97920.75;4992584;28;20202;-63
2022/07/31 00:56:19;;;;;;;2.60;2.38;;;;;;;25.72;64.88;97931.69;4992631;28;20178;-63
2022/07/31 00:58:44;;;;;;;2.55;2.45;;;;;;;25.73;65.26;97933.31;4992574;28;20192;-63
2022/07/31 01:01:10;;;;;;;3.17;2.45;;;;;;;25.75;67.38;97925.97;4992574;28;20619;-63
2022/07/31 01:03:35;;;;;;;2.38;2.17;;;;;;;25.47;68.98;97914.06;4992686;28;20672;-63
2022/07/31 01:06:00;;;;;;;2.35;2.25;;;;;;;25.19;70.08;97916.22;4996458;28;20199;-63
2022/07/31 01:08:26;;;;;;;2.97;2.78;;;;;;;25.23;66.95;97920.88;4996470;28;20629;-63
2022/07/31 01:10:57;;;;;;;3.03;2.83;;;;;;;25.28;66.16;97915.78;4996403;28;20167;-63
2022/07/31 01:13:36;;;;;;;2.90;2.70;;;;;;;25.17;67.15;97915.59;4996428;28;20156;-63
2022/07/31 01:16:03;;;;;;;2.78;2.58;;;;;;;24.98;69.14;97911.16;4996332;28;20171;-63
2022/07/31 01:18:32;;;;;;;4.00;3.10;;;;;;;24.98;66.71;97912.00;4996352;28;20171;-63
2022/07/31 01:21:04;;;;;;;2.92;2.65;;;;;;;25.12;65.13;97907.44;4996489;28;20189;-63
2022/07/31 01:23:37;;;;;;;2.50;2.40;;;;;;;25.31;62.00;97906.63;4996231;28;20218;-63
2022/07/31 01:26:39;;;;;;;2.85;2.65;;;;;;;25.33;62.11;97907.22;4996274;28;20207;-63
2022/07/31 01:29:26;;;;;;;2.53;2.33;;;;;;;25.33;62.44;97907.22;4996382;28;20162;-63
2022/07/31 01:32:06;;;;;;;2.78;2.58;;;;;;;25.14;63.66;97908.88;4996057;28;20193;-62
2022/07/31 01:34:48;;;;;;;2.38;2.28;;;;;;;24.74;64.67;97899.38;4995848;28;20191;-63
2022/07/31 01:37:31;;;;;;;2.60;2.50;;;;;;;24.66;65.62;97901.47;5011088;28;20168;-63
2022/07/31 01:40:04;;;;;;;2.53;2.33;;;;;;;24.79;63.54;97902.22;4996175;28;20187;-63
2022/07/31 01:42:33;;;;;;;2.40;2.30;;;;;;;24.91;62.80;97900.56;4996114;28;20236;-63
2022/07/31 01:45:00;;;;;;;3.25;2.60;;;;;;;24.87;62.75;97899.38;4996040;28;20254;-62
2022/07/31 01:47:28;;;;;;;2.92;2.50;;;;;;;25.06;62.21;97893.22;4995665;28;20191;-63
2022/07/31 01:49:54;;;;;;;2.90;2.70;;;;;;;25.11;61.86;97885.47;4995748;28;20186;-64
2022/07/31 01:52:23;;;;;;;3.10;2.90;;;;;;;25.24;62.06;97876.66;4995692;28;20183;-63
2022/07/31 01:54:50;;;;;;;2.40;2.20;;;;;;;25.12;61.78;97868.56;4995553;28;20670;-63
2022/07/31 01:57:17;;;;;;;2.75;2.55;;;;;;;24.87;62.42;97872.09;4995604;28;20167;-63
2022/07/31 01:59:47;;;;;;;2.60;2.50;;;;;;;24.85;62.94;97888.16;4995449;28;20181;-62
2022/07/31 02:02:14;;;;;;;3.00;2.80;;;;;;;24.80;63.53;97882.72;5010513;28;20175;-63
2022/07/31 02:04:40;;;;;;;2.85;2.65;;;;;;;24.86;63.72;97884.53;4995550;28;20175;-62
2022/07/31 02:07:07;;;;;;;3.08;2.88;;;;;;;24.70;63.96;97871.72;4995706;28;20282;-62
2022/07/31 02:09:33;;;;;;;2.95;2.75;;;;;;;24.91;62.72;97874.09;4995389;28;20667;-62
2022/07/31 02:12:00;;;;;;;4.05;3.08;;;;;;;24.80;63.24;97903.88;4995271;28;20652;-62
2022/07/31 02:14:26;;;;;;;4.20;3.20;;;;;;;24.93;65.45;97909.16;4995166;28;20182;-63
2022/07/31 02:16:53;;;;;;;3.20;3.00;;;;;;;25.00;65.69;97902.00;4995147;28;20170;-62
2022/07/31 02:19:21;;;;;;;3.88;3.45;;;;;;;25.09;66.27;97916.63;4995386;28;20266;-62
2022/07/31 02:21:46;;;;;;;3.05;2.85;;;;;;;25.05;66.96;97918.06;4995156;28;20653;-62
2022/07/31 02:24:12;;;;;;;9.38;3.08;;;;;;;24.91;68.54;97932.34;4995089;28;20202;-62
2022/07/31 02:26:39;;;;;;;3.53;3.22;;;;;;;24.75;69.89;97924.03;4995298;28;20195;-61
2022/07/31 02:29:07;;;;;;;3.38;3.08;;;;;;;24.67;70.70;97914.47;4995010;28;20175;-63
2022/07/31 02:31:34;;;;;;;3.40;3.10;;;;;;;24.58;72.19;97922.03;4995416;28;20175;-61
2022/07/31 02:34:00;;;;;;;4.60;3.45;;;;;;;24.23;73.82;97920.56;4993576;28;20199;-63
2022/07/31 02:36:28;;;;;;;3.85;3.13;;;;;;;24.04;74.25;97917.66;4994919;28;20171;-62
2022/07/31 02:38:56;;;;;;;3.75;3.17;;;;;;;23.98;75.03;97913.19;4994847;28;20182;-63
2022/07/31 02:41:23;;;;;;;3.40;3.20;;;;;;;23.72;78.17;97901.72;4994824;28;20216;-62
2022/07/31 02:43:49;;;;;;;3.47;3.28;;;;;;;23.83;77.68;97909.06;4994679;28;20175;-63
2022/07/31 02:46:16;;;;;;;3.53;3.13;;;;;;;24.08;76.16;97909.34;4994600;28;20281;-62
2022/07/31 02:48:42;;;;;;;4.07;3.15;;;;;;;24.30;74.79;97903.66;4994615;28;20175;-63
2022/07/31 02:51:08;;;;;;;2.70;2.50;;;;;;;24.24;75.69;97913.25;4994645;28;20183;-63
2022/07/31 02:53:33;;;;;;;3.33;3.10;;;;;;;24.43;75.37;97928.28;4994578;28;20559;-62
2022/07/31 02:56:00;;;;;;;2.85;2.63;;;;;;;24.32;74.99;97915.66;4994822;28;20649;-62
2022/07/31 02:58:26;;;;;;;3.15;2.85;;;;;;;23.44;79.92;97900.22;4994452;28;20275;-62
2022/07/31 03:01:03;;;;;;;5.00;3.17;;;;;;;23.38;80.95;97908.94;4994512;28;20266;-62
2022/07/31 03:03:29;;;;;;;3.50;3.20;;;;;;;22.92;83.68;97911.31;4993165;28;20171;-62
2022/07/31 03:05:54;;;;;;;3.33;3.10;;;;;;;22.46;86.86;97898.81;4992998;28;20179;-62
2022/07/31 03:08:20;;;;;;;3.28;3.03;;;;;;;22.35;88.15;97894.88;4994323;28;20187;-62
2022/07/31 03:10:46;;;;;;;2.80;2.60;;;;;;;22.57;86.79;97909.66;4992978;28;20221;-62
2022/07/31 03:13:12;;;;;;;3.58;2.78;;;;;;;22.66;86.17;97915.63;4992962;28;20266;-62
2022/07/31 03:15:39;;;;;;;3.00;2.80;;;;;;;22.59;85.89;97912.09;4994163;28;20680;-62
2022/07/31 03:18:05;;;;;;;2.50;2.40;;;;;;;22.64;84.92;97904.44;4994076;28;20645;-62
2022/07/31 03:20:31;;;;;;;3.58;2.92;;;;;;;22.46;85.28;97912.84;4994185;28;20187;-62
2022/07/31 03:22:59;;;;;;;5.78;2.90;;;;;;;22.45;85.19;97910.38;4993992;28;20207;-62
2022/07/31 03:25:25;;;;;;;2.78;2.60;;;;;;;22.52;84.42;97916.50;4992664;28;20185;-63
2022/07/31 03:27:51;;;;;;;3.95;2.70;;;;;;;22.50;83.64;97918.53;4991875;28;20602;-63
2022/07/31 03:30:18;;;;;;;4.15;2.90;;;;;;;22.24;84.80;97902.47;4992621;28;20186;-62
2022/07/31 03:32:44;;;;;;;2.92;2.72;;;;;;;22.20;84.70;97909.13;4993569;28;20230;-61
2022/07/31 03:35:10;;;;;;;2.78;2.60;;;;;;;22.12;85.20;97914.53;4993736;28;20171;-62
2022/07/31 03:37:35;;;;;;;3.03;2.83;;;;;;;22.28;84.26;97906.34;4993725;28;20171;-62
2022/07/31 03:40:00;;;;;;;2.53;2.42;;;;;;;22.25;83.82;97910.19;4993792;28;20182;-62
2022/07/31 03:42:27;;;;;;;2.58;2.47;;;;;;;22.10;84.31;97906.00;4993617;28;20175;-62
2022/07/31 03:44:54;;;;;;;4.80;3.10;;;;;;;22.03;84.29;97902.50;4992319;28;20261;-62
2022/07/31 03:47:20;;;;;;;2.80;2.60;;;;;;;22.31;82.03;97906.78;4993674;28;20203;-62
2022/07/31 03:49:46;;;;;;;1.77;1.67;;;;;;;22.45;76.88;97913.00;4993464;28;20648;-62
2022/07/31 03:52:12;;;;;;;2.00;1.90;;;;;;;22.60;75.21;97929.56;4993459;28;20260;-61
2022/07/31 03:54:37;;;;;;;1.80;1.70;;;;;;;22.83;71.56;97923.03;4993578;28;20202;-62
2022/07/31 03:57:04;;;;;;;2.20;1.40;;;;;;;23.01;70.81;97927.81;4993408;28;20252;-62
2022/07/31 03:59:32;;;;;;;2.10;2.00;;;;;;;23.24;69.69;97926.53;4993448;28;20217;-62
2022/07/31 04:01:59;;;;;;;1.80;1.70;;;;;;;23.48;69.16;97927.88;4993333;28;20279;-62
2022/07/31 04:04:25;;;;;;;1.80;1.70;;;;;;;23.67;68.88;97935.88;4993442;28;20179;-62
2022/07/31 04:06:51;;;;;;;1.75;1.63;;;;;;;23.80;67.19;97934.06;4993159;28;20285;-62
2022/07/31 04:09:16;;;;;;;2.75;1.70;;;;;;;23.88;66.80;97933.09;4993193;28;20258;-62
2022/07/31 04:11:42;;;;;;;4.00;1.85;;;;;;;23.95;66.87;97935.78;4993387;28;20640;-62
2022/07/31 04:14:07;;;;;;;1.70;1.58;;;;;;;23.87;66.51;97931.44;4991886;28;20171;-62
2022/07/31 04:16:33;;;;;;;1.85;1.75;;;;;;;23.96;66.55;97935.53;4993061;28;20171;-62
2022/07/31 04:18:58;;;;;;;2.10;2.00;;;;;;;23.98;67.10;97943.28;4993038;28;20175;-62
2022/07/31 04:21:23;;;;;;;2.10;2.00;;;;;;;23.89;67.95;97933.94;5008072;28;20179;-62
2022/07/31 04:23:49;;;;;;;2.28;1.90;;;;;;;23.94;67.43;97936.78;4993141;28;20178;-61
2022/07/31 04:26:14;;;;;;;2.00;1.90;;;;;;;24.07;67.30;97931.53;4991583;28;20247;-62
2022/07/31 04:28:39;;;;;;;2.28;2.10;;;;;;;24.08;67.18;97938.44;4992885;28;20266;-62
2022/07/31 04:31:05;;;;;;;1.67;1.58;;;;;;;24.14;65.57;97936.59;4992856;28;20263;-62
2022/07/31 04:33:30;;;;;;;3.05;2.05;;;;;;;24.25;64.81;97938.66;4992678;28;20202;-62
2022/07/31 04:35:56;;;;;;;1.38;1.27;;;;;;;24.23;63.21;97933.78;4992755;28;20626;-62
2022/07/31 04:38:21;;;;;;;1.52;1.50;;;;;;;24.23;63.36;97931.16;4992761;28;20179;-62
2022/07/31 04:40:48;;;;;;;1.65;1.58;;;;;;;24.08;63.48;97927.84;4991507;28;20200;-62
2022/07/31 04:43:15;;;;;;;1.80;1.67;;;;;;;24.08;64.70;97926.84;4992673;28;20190;-62
2022/07/31 04:45:41;;;;;;;1.80;1.65;;;;;;;24.17;64.53;97929.31;4992677;28;20747;-62
2022/07/31 04:48:07;;;;;;;3.13;1.90;;;;;;;24.19;64.92;97923.59;4992545;28;20194;-62
2022/07/31 04:50:32;;;;;;;1.83;1.73;;;;;;;24.20;65.35;97921.78;4991387;28;20664;-62
2022/07/31 04:52:58;;;;;;;1.77;1.67;;;;;;;24.23;65.29;97931.16;4992830;28;20175;-62
2022/07/31 04:55:24;;;;;;;1.75;1.65;;;;;;;24.14;64.99;97931.31;4992795;28;20171;-62
2022/07/31 04:57:50;;;;;;;2.20;2.10;;;;;;;24.24;65.83;97929.09;4992921;28;20167;-62
2022/07/31 05:00:15;;;;;;;1.80;1.70;;;;;;;24.30;66.50;97933.59;4992532;28;20254;-62
2022/07/31 05:02:41;;;;;;;2.88;2.63;;;;;;;24.27;67.24;97936.63;4992531;28;20171;-62
2022/07/31 05:05:07;;;;;;;2.45;1.98;;;;;;;24.40;67.43;97922.59;4992788;28;20178;-63
2022/07/31 05:07:33;;;;;;;2.08;1.98;;;;;;;24.51;66.88;97938.69;4992412;28;20198;-62
2022/07/31 05:09:59;;;;;;;2.28;2.17;;;;;;;24.58;66.31;97934.22;4992691;28;20179;-62
2022/07/31 05:12:24;;;;;;;3.20;2.08;;;;;;;24.70;65.77;97940.53;4992456;28;20253;-62
2022/07/31 05:14:50;;;;;;;3.08;2.00;;;;;;;24.69;65.66;97944.19;4992628;28;20179;-62
2022/07/31 05:17:16;;;;;;;4.68;2.08;;;;;;;24.67;66.31;97943.56;4992646;28;20594;-61
2022/07/31 05:19:41;;;;;;;3.08;2.08;;;;;;;24.56;66.38;97930.91;4992608;28;20670;-63
2022/07/31 05:22:06;;;;;;;2.05;1.95;;;;;;;24.69;66.61;97936.25;4992344;28;20179;-62
2022/07/31 05:24:32;;;;;;;2.20;1.98;;;;;;;24.68;66.41;97934.63;4992292;28;20221;-62
2022/07/31 05:26:58;;;;;;;2.17;2.08;;;;;;;24.81;66.53;97934.63;4992461;28;20199;-62
2022/07/31 05:29:23;;;;;;;2.10;1.90;;;;;;;24.88;66.30;97938.06;4992299;28;20579;-61
2022/07/31 05:31:49;;;;;;;2.63;1.80;;;;;;;24.89;66.23;97938.88;4992322;28;20226;-61
2022/07/31 05:34:14;;;;;;;2.20;2.10;;;;;;;25.03;65.16;97938.63;4992409;28;20202;-61
2022/07/31 05:36:39;;;;;;;2.10;2.00;;;;;;;25.12;64.97;97945.34;4992219;28;20262;-62
2022/07/31 05:39:05;;;;;;;4.97;2.42;;;;;;;25.12;64.23;97929.47;4992469;28;20649;-62
2022/07/31 05:41:32;;;;;;;1.90;1.80;;;;;;;25.09;64.37;97935.16;4992162;28;20652;-62
2022/07/31 05:43:58;;;;;;;2.30;2.20;;;;;;;25.08;65.00;97938.03;4992454;28;20210;-62
2022/07/31 05:46:24;;;;;;;2.28;2.08;;;;;;;25.11;65.02;97934.94;4990805;28;20235;-62
2022/07/31 05:48:49;;;;;;;2.30;1.92;;;;;;;25.27;63.80;97938.00;4992124;28;20172;-62
2022/07/31 05:51:14;;;;;;;2.00;1.90;;;;;;;25.37;64.26;97933.06;4994689;28;20171;-63
2022/07/31 05:53:41;;;;;;;2.08;1.98;;;;;;;25.48;63.68;97934.28;4995701;28;20266;-62
2022/07/31 05:56:07;;;;;;;2.45;2.35;;;;;;;25.51;62.67;97929.34;4995633;28;20186;-62
2022/07/31 05:58:33;;;;;;;2.13;1.70;;;;;;;25.66;62.18;97926.44;4995554;28;20562;-62
2022/07/31 06:00:59;;;;;;;1.90;1.80;;;;;;;25.77;61.89;97937.16;4995459;28;20665;-63
2022/07/31 06:03:30;;;;;;;1.98;1.88;;;;;;;25.83;61.45;97927.56;4995524;28;20175;-62
2022/07/31 06:05:56;;;;;;;1.95;1.85;;;;;;;25.85;60.80;97926.34;4995614;28;20167;-63
2022/07/31 06:08:21;;;;;;;2.10;2.00;;;;;;;25.88;60.40;97925.91;4995330;28;20182;-63
2022/07/31 06:10:47;;;;;;;2.65;1.90;;;;;;;25.93;61.40;97925.28;4995579;28;20175;-62
2022/07/31 06:13:13;;;;;;;2.25;2.15;;;;;;;26.03;60.69;97922.97;4995096;28;20559;-62
2022/07/31 06:15:40;;;;;;;2.97;2.60;;;;;;;25.95;60.15;97926.69;4995259;28;20175;-62
2022/07/31 06:18:05;;;;;;;3.50;3.30;;;;;;;25.96;61.01;97920.38;4995463;28;20167;-62
2022/07/31 06:20:31;;;;;;;2.53;2.17;;;;;;;26.10;60.44;97918.44;4995188;28;20163;-62
2022/07/31 06:22:56;;;;;;;5.20;1.98;;;;;;;26.13;59.85;97910.06;4995116;28;20554;-62
2022/07/31 06:25:22;;;;;;;1.88;1.77;;;;;;;26.24;59.61;97920.00;4995324;28;20172;-62
2022/07/31 06:27:47;;;;;;;2.42;2.08;;;;;;;26.37;59.18;97930.50;4995197;28;20195;-62
2022/07/31 06:30:13;;;;;;;2.47;2.28;;;;;;;26.41;59.40;97918.44;4993765;28;20563;-62
2022/07/31 06:32:38;;;;;;;1.85;1.75;;;;;;;26.59;59.22;97924.63;4994779;28;20217;-62
2022/07/31 06:35:05;;;;;;;2.58;2.38;;;;;;;26.70;59.07;97928.44;4994869;28;20309;-62
2022/07/31 06:37:31;;;;;;;4.93;2.20;;;;;;;26.77;57.71;97922.00;4994963;28;20262;-62
2022/07/31 06:39:56;;;;;;;3.10;1.98;;;;;;;26.93;56.40;97925.97;4994830;28;20254;-62
2022/07/31 06:42:23;;;;;;;4.32;2.42;;;;;;;27.12;56.40;97930.25;4994814;28;20191;-62
2022/07/31 06:44:49;;;;;;;2.15;2.00;;;;;;;27.19;57.10;97918.56;4994733;28;20597;-62
2022/07/31 06:47:20;;;;;;;1.90;1.80;;;;;;;27.44;57.05;97927.25;4994600;28;20286;-62
2022/07/31 06:49:46;;;;;;;2.20;2.00;;;;;;;27.62;56.01;97932.53;4994990;28;20171;-62
2022/07/31 06:52:11;;;;;;;2.20;2.10;;;;;;;27.83;53.66;97937.41;4994595;28;20183;-62
2022/07/31 06:54:37;;;;;;;2.15;1.80;;;;;;;27.54;52.61;97924.06;4994798;28;20179;-62
2022/07/31 06:57:02;;;;;;;2.60;2.40;;;;;;;27.64;53.24;97929.66;4994800;28;20609;-62
2022/07/31 06:59:28;;;;;;;2.55;2.35;;;;;;;27.70;53.16;97926.91;4994441;28;20719;-63
2022/07/31 07:01:53;;;;;;;2.80;2.60;;;;;;;27.84;52.35;97925.75;4993355;28;20194;-62
2022/07/31 07:04:19;;;;;;;2.65;2.45;;;;;;;27.94;52.90;97920.66;4994567;28;20265;-62
2022/07/31 07:06:44;;;;;;;2.78;2.58;;;;;;;28.01;53.20;97900.13;4994501;28;20695;-62
2022/07/31 07:09:10;;;;;;;3.08;2.80;;;;;;;28.32;53.47;97922.97;4994261;28;20167;-63
2022/07/31 07:11:35;;;;;;;7.35;3.00;;;;;;;28.29;53.00;97924.22;4994366;28;20523;-63
2022/07/31 07:14:00;;;;;;;3.70;3.40;;;;;;;28.37;52.44;97926.63;4994253;28;20186;-63
2022/07/31 07:16:26;;;;;;;2.95;2.72;;;;;;;28.51;50.97;97921.91;4994132;28;20171;-62
2022/07/31 07:18:51;;;;;;;4.90;4.40;;;;;;;28.61;51.00;97922.13;4994049;28;20179;-63
2022/07/31 07:21:17;;;;;;;3.83;3.53;;;;;;;28.61;51.41;97917.63;4993846;28;20171;-63
2022/07/31 07:23:43;;;;;;;4.57;3.40;;;;;;;28.73;51.52;97921.09;4993769;28;20183;-62
2022/07/31 07:26:09;;;;;;;3.60;3.30;;;;;;;28.74;51.78;97922.72;4994028;28;20176;-63
2022/07/31 07:28:34;;;;;;;4.10;3.70;;;;;;;28.87;51.45;97922.47;4993823;28;20626;-63
2022/07/31 07:31:01;;;;;;;3.53;3.28;;;;;;;28.86;51.38;97914.72;4993862;28;20237;-62
2022/07/31 07:33:26;;;;;;;7.15;3.65;;;;;;;28.97;51.72;97922.72;4993730;28;20210;-62
2022/07/31 07:35:52;;;;;;;5.38;3.30;;;;;;;29.04;51.27;97918.09;4993998;28;20674;-63
2022/07/31 07:38:17;;;;;;;3.33;3.13;;;;;;;29.07;51.09;97914.16;4993985;28;20657;-63
2022/07/31 07:40:43;;;;;;;4.35;3.80;;;;;;;29.11;50.84;97923.31;4993717;28;20710;-62
2022/07/31 07:43:08;;;;;;;4.10;3.70;;;;;;;29.12;51.09;97920.41;4993638;28;20178;-62
2022/07/31 07:45:34;;;;;;;4.10;3.30;;;;;;;29.17;51.01;97920.53;4993609;28;20163;-63
2022/07/31 07:47:59;;;;;;;4.30;3.60;;;;;;;29.13;51.03;97916.69;4993693;28;20758;-63
2022/07/31 07:50:25;;;;;;;4.03;3.70;;;;;;;29.17;50.77;97922.38;4993182;28;20593;-62
2022/07/31 07:52:51;;;;;;;3.80;3.50;;;;;;;29.21;51.55;97924.31;4993337;28;20182;-62
2022/07/31 07:55:16;;;;;;;4.00;3.75;;;;;;;29.24;50.89;97918.53;4993407;28;20186;-62
2022/07/31 07:57:44;;;;;;;6.95;6.40;;;;;;;29.21;50.80;97921.66;4993377;28;20653;-62
2022/07/31 08:00:11;;;;;;;3.30;3.10;;;;;;;29.27;50.53;97925.25;4993576;28;20203;-64
2022/07/31 08:02:36;;;;;;;4.03;3.60;;;;;;;29.28;49.65;97935.69;4993260;28;20186;-62
2022/07/31 08:05:03;;;;;;;5.18;4.70;;;;;;;29.26;50.00;97927.09;4993232;28;20582;-62
2022/07/31 08:07:33;;;;;;;4.10;3.72;;;;;;;29.32;50.58;97923.50;4993087;28;20210;-62
2022/07/31 08:09:59;;;;;;;3.88;3.40;;;;;;;29.36;50.00;97919.31;4993247;28;20191;-63
2022/07/31 08:12:25;;;;;;;4.40;3.30;;;;;;;29.43;49.82;97919.22;4992990;28;20171;-63
2022/07/31 08:14:51;;;;;;;3.88;3.53;;;;;;;29.51;49.26;97919.63;4991748;28;20270;-63
2022/07/31 08:17:18;;;;;;;4.75;3.72;;;;;;;29.55;49.64;97925.34;4993077;28;20171;-63
2022/07/31 08:19:43;;;;;;;3.78;3.47;;;;;;;29.62;49.53;97920.69;4993011;28;20179;-63
2022/07/31 08:22:09;;;;;;;4.90;4.15;;;;;;;29.68;48.77;97920.53;4993547;28;20202;-63
2022/07/31 08:24:34;;;;;;;5.28;3.53;;;;;;;29.69;48.40;97924.00;4992942;28;20207;-62
2022/07/31 08:29:46;;;;;;;3.75;3.53;;;;;;;29.83;47.93;97917.34;4992903;28;20237;-63
2022/07/31 08:32:12;;;;;;;4.90;3.78;;;;;;;29.84;47.92;97909.09;4992847;28;20284;-62
2022/07/31 08:34:38;;;;;;;4.53;4.13;;;;;;;29.77;47.25;97913.78;4992812;28;20223;-62
2022/07/31 08:37:05;;;;;;;5.68;4.20;;;;;;;29.78;47.72;97904.72;4992696;28;20175;-63
2022/07/31 08:39:31;;;;;;;4.15;3.85;;;;;;;29.80;47.39;97899.16;4992934;28;20183;-63
2022/07/31 08:41:57;;;;;;;4.43;3.60;;;;;;;29.87;47.38;97908.63;4992728;28;20199;-62
2022/07/31 08:44:22;;;;;;;5.90;4.30;;;;;;;29.88;47.69;97907.59;4992939;28;20623;-62
2022/07/31 08:46:48;;;;;;;5.00;4.60;;;;;;;29.77;48.10;97871.09;4992823;28;20210;-62
2022/07/31 08:49:16;;;;;;;4.05;3.75;;;;;;;29.95;46.93;97910.91;4992682;28;20215;-63
2022/07/31 08:51:43;;;;;;;4.25;3.65;;;;;;;29.99;47.45;97904.06;4992585;28;20193;-62
2022/07/31 08:54:09;;;;;;;4.50;4.18;;;;;;;30.09;47.70;97911.41;4992609;28;20167;-62
2022/07/31 08:56:36;;;;;;;4.28;3.90;;;;;;;30.12;47.34;97906.44;4992582;28;20171;-63
2022/07/31 08:59:06;;;;;;;4.25;3.85;;;;;;;30.17;46.68;97901.19;4992515;28;20179;-63
2022/07/31 09:01:36;;;;;;;4.05;3.78;;;;;;;30.23;46.95;97892.22;4991257;28;20567;-63
2022/07/31 09:04:02;;;;;;;4.60;4.20;;;;;;;30.21;46.49;97894.31;4993001;28;20183;-63
2022/07/31 09:06:28;;;;;;;5.85;4.30;;;;;;;30.32;46.79;97901.44;4992412;28;20198;-63
2022/07/31 09:08:56;;;;;;;4.50;4.10;;;;;;;30.32;45.27;97900.63;4992672;28;20178;-63
2022/07/31 09:11:22;;;;;;;4.78;4.47;;;;;;;30.39;45.41;97899.44;4992394;28;20649;-63
2022/07/31 09:13:59;;;;;;;4.68;4.38;;;;;;;30.43;46.12;97903.22;4992453;28;20229;-63
2022/07/31 09:16:25;;;;;;;6.18;4.50;;;;;;;30.36;46.26;97902.56;4992778;28;20155;-63
2022/07/31 09:19:03;;;;;;;4.85;4.38;;;;;;;30.40;45.37;97895.72;4992381;28;20175;-63
2022/07/31 09:21:40;;;;;;;4.25;3.95;;;;;;;30.49;46.23;97886.22;4992710;28;20263;-63
2022/07/31 09:24:08;;;;;;;5.18;3.92;;;;;;;30.60;45.47;97893.34;4992488;28;20171;-63
2022/07/31 09:26:35;;;;;;;4.60;4.30;;;;;;;30.66;45.17;97897.72;4995717;28;20291;-63
2022/07/31 09:29:02;;;;;;;5.35;4.82;;;;;;;30.70;45.12;97884.69;4996276;28;20182;-63
2022/07/31 09:31:37;;;;;;;4.55;4.25;;;;;;;30.71;45.30;97884.47;4996184;28;20189;-63
2022/07/31 09:34:03;;;;;;;4.30;3.90;;;;;;;30.88;44.51;97887.91;4996079;28;20205;-62
2022/07/31 09:36:29;;;;;;;5.00;4.63;;;;;;;30.90;44.92;97885.78;4996267;28;20258;-62
2022/07/31 09:38:58;;;;;;;4.85;4.45;;;;;;;31.02;44.36;97881.16;4995924;28;20704;-63
2022/07/31 09:41:24;;;;;;;5.05;4.55;;;;;;;31.06;43.74;97876.94;5010983;28;20233;-63
2022/07/31 09:44:01;;;;;;;4.90;4.60;;;;;;;31.09;44.84;97870.28;4995901;28;20676;-63
2022/07/31 09:46:38;;;;;;;5.57;5.07;;;;;;;31.16;44.55;97874.41;4995781;28;20186;-64
2022/07/31 09:49:03;;;;;;;6.05;5.47;;;;;;;31.24;44.85;97862.50;4996073;28;20233;-63
2022/07/31 09:51:39;;;;;;;5.95;5.43;;;;;;;31.34;44.03;97874.13;4995791;28;20645;-63
2022/07/31 09:54:05;;;;;;;5.32;4.82;;;;;;;31.35;43.27;97864.25;4996044;28;20175;-63
2022/07/31 09:56:32;;;;;;;5.15;4.75;;;;;;;31.41;43.03;97866.72;4995673;28;20663;-63
2022/07/31 09:58:58;;;;;;;5.25;4.85;;;;;;;31.40;43.62;97864.28;4995566;28;20179;-63
2022/07/31 10:01:24;;;;;;;5.53;5.00;;;;;;;31.45;43.18;97858.97;4995595;28;20258;-63
2022/07/31 10:03:52;;;;;;;6.18;5.05;;;;;;;31.55;42.94;97859.94;4995577;28;20314;-63
2022/07/31 10:06:19;;;;;;;6.20;4.88;;;;;;;31.60;42.85;97859.94;4995635;28;20179;-63
2022/07/31 10:08:45;;;;;;;6.10;4.60;;;;;;;31.69;41.80;97849.63;4995407;28;20183;-64
2022/07/31 10:11:13;;;;;;;6.00;5.00;;;;;;;31.76;42.25;97844.91;4995635;28;20197;-63
2022/07/31 10:13:46;;;;;;;6.75;4.70;;;;;;;31.90;42.18;97844.25;4995280;28;20175;-63
2022/07/31 10:16:13;;;;;;;5.88;5.25;;;;;;;31.95;41.93;97843.50;4995365;28;20289;-63
2022/07/31 10:18:44;;;;;;;5.93;5.43;;;;;;;32.04;41.65;97847.31;4995084;28;20175;-62
2022/07/31 10:21:10;;;;;;;8.18;5.40;;;;;;;32.01;42.03;97832.56;4995196;28;20164;-63
2022/07/31 10:23:40;;;;;;;6.63;5.05;;;;;;;32.13;41.75;97843.91;4995117;28;20182;-63
2022/07/31 10:26:06;;;;;;;5.32;4.72;;;;;;;32.07;40.53;97844.91;4995327;28;20179;-63
2022/07/31 10:28:36;;;;;;;6.30;5.25;;;;;;;32.09;41.22;97847.34;4995025;28;20210;-63
2022/07/31 10:31:01;;;;;;;5.80;5.20;;;;;;;32.17;41.67;97842.34;4995415;28;20182;-63
2022/07/31 10:33:28;;;;;;;5.85;5.35;;;;;;;32.26;41.08;97835.50;4994824;28;20713;-63
2022/07/31 10:36:04;;;;;;;5.82;5.20;;;;;;;32.44;40.68;97835.09;4994818;28;20199;-63
2022/07/31 10:38:42;;;;;;;5.28;4.78;;;;;;;32.59;40.33;97834.38;4994947;28;20246;-63
2022/07/31 10:41:41;;;;;;;5.50;4.82;;;;;;;32.76;38.78;97835.03;4995088;28;20159;-63
2022/07/31 10:44:30;;;;;;;4.38;4.00;;;;;;;32.79;38.75;97829.97;4995036;28;20163;-63
2022/07/31 10:46:56;;;;;;;4.63;4.32;;;;;;;32.83;39.00;97833.75;4966373;28;20218;-63
2022/07/31 10:49:42;;;;;;;4.50;4.10;;;;;;;32.99;38.78;97824.69;4994695;28;20183;-63
2022/07/31 10:52:08;;;;;;;4.20;3.90;;;;;;;33.22;37.29;97829.63;4994818;28;20162;-63
2022/07/31 10:54:45;;;;;;;4.30;4.00;;;;;;;33.37;37.72;97832.41;4994693;28;20172;-63
2022/07/31 10:57:30;;;;;;;5.00;4.25;;;;;;;33.55;36.77;97829.22;4994628;28;20607;-63
2022/07/31 11:00:16;;;;;;;3.83;3.53;;;;;;;33.78;36.84;97823.41;4994632;28;20155;-63
2022/07/31 11:02:42;;;;;;;3.70;3.40;;;;;;;34.01;35.74;97828.25;4995038;28;20653;-63
2022/07/31 11:05:10;;;;;;;3.72;3.42;;;;;;;34.14;35.03;97832.25;4994443;28;20175;-63
2022/07/31 11:07:35;;;;;;;4.35;3.95;;;;;;;34.32;35.30;97824.50;4994298;28;20268;-62
2022/07/31 11:10:09;;;;;;;5.88;3.80;;;;;;;34.48;34.00;97828.78;4994276;28;20656;-63
2022/07/31 11:12:34;;;;;;;3.72;3.53;;;;;;;34.63;34.09;97826.06;4994325;28;20175;-62
2022/07/31 11:15:00;;;;;;;3.95;3.58;;;;;;;34.61;33.49;97827.44;4994321;28;20167;-62
2022/07/31 11:17:38;;;;;;;3.05;2.85;;;;;;;34.73;32.44;97836.81;4994165;28;20274;-63
2022/07/31 11:20:16;;;;;;;3.13;2.90;;;;;;;34.73;31.71;97836.81;4994068;28;20237;-63
2022/07/31 11:22:41;;;;;;;3.40;3.20;;;;;;;34.90;32.70;97831.16;4994263;28;20178;-63
2022/07/31 11:25:11;;;;;;;3.25;3.05;;;;;;;34.91;32.38;97814.72;4992812;28;20171;-62
2022/07/31 11:27:37;;;;;;;3.85;3.60;;;;;;;35.08;32.49;97823.28;4994324;28;20199;-63
2022/07/31 11:30:07;;;;;;;3.63;3.33;;;;;;;35.33;31.81;97820.50;4993036;28;20238;-63
2022/07/31 11:32:33;;;;;;;3.25;3.05;;;;;;;35.39;31.69;97834.75;4993883;28;20203;-63
2022/07/31 11:34:58;;;;;;;4.40;3.50;;;;;;;35.51;31.57;97827.94;4993790;28;20169;-64
2022/07/31 11:37:29;;;;;;;2.85;2.65;;;;;;;35.44;31.08;97813.97;4993744;28;20195;-64